createdAt,value
2018-03-02T00:01:36.292Z,27.37
2018-03-02T00:04:02.314Z,29.60
2018-03-02T00:06:28.334Z,24.97
2018-03-02T00:08:54.332Z,26.60
2018-03-02T00:11:20.666Z,28.97
2018-03-02T00:13:46.691Z,30.53
2018-03-02T00:16:12.680Z,25.87
2018-03-02T00:18:39.022Z,25.07
2018-03-02T00:21:05.047Z,24.27
2018-03-02T00:23:31.374Z,25.70
2018-03-02T00:25:57.370Z,26.33
2018-03-02T00:28:23.372Z,30.33
2018-03-02T00:30:49.401Z,25.50
2018-03-02T00:33:16.051Z,31.57
2018-03-02T00:35:42.086Z,29.83
2018-03-02T00:38:08.085Z,23.17
2018-03-02T00:40:34.112Z,27.13
2018-03-02T00:43:00.126Z,29.30
2018-03-02T00:45:26.155Z,33.30
2018-03-02T00:47:52.171Z,30.77
2018-03-02T00:50:18.203Z,29.30
2018-03-02T00:52:44.249Z,20.67
2018-03-02T00:55:10.346Z,24.77
2018-03-02T00:57:37.130Z,30.23
2018-03-02T01:00:03.295Z,35.87
2018-03-02T01:02:29.350Z,33.03
2018-03-02T01:04:55.718Z,30.50
2018-03-02T01:07:21.842Z,29.17
2018-03-02T01:09:47.848Z,29.43
2018-03-02T01:12:13.874Z,37.00
2018-03-02T01:14:39.940Z,29.30
2018-03-02T01:17:06.262Z,27.83
2018-03-02T01:19:32.250Z,29.93
2018-03-02T01:21:58.296Z,29.40
2018-03-02T01:24:24.347Z,29.93
2018-03-02T01:26:50.361Z,33.27
2018-03-02T01:29:16.446Z,31.30
2018-03-02T01:31:42.506Z,32.70
2018-03-02T01:34:08.582Z,31.93
2018-03-02T01:36:34.566Z,29.47
2018-03-02T01:39:00.565Z,34.83
2018-03-02T01:41:26.583Z,32.90
2018-03-02T01:43:52.985Z,31.37
2018-03-02T01:46:19.018Z,34.60
2018-03-02T01:48:45.029Z,19.73
2018-03-02T01:51:23.762Z,38.67
2018-03-02T01:53:49.774Z,28.83
2018-03-02T01:56:15.811Z,35.20
2018-03-02T01:58:41.958Z,28.70
2018-03-02T02:01:07.979Z,34.97
2018-03-02T02:03:34.019Z,30.43
2018-03-02T02:06:00.031Z,35.53
2018-03-02T02:08:26.287Z,35.17
2018-03-02T02:10:52.306Z,37.27
2018-03-02T02:13:18.318Z,39.03
2018-03-02T02:15:44.334Z,35.43
2018-03-02T02:18:10.346Z,35.67
2018-03-02T02:20:36.642Z,37.17
2018-03-02T02:23:02.667Z,36.20
2018-03-02T02:25:28.696Z,26.10
2018-03-02T02:27:54.753Z,30.40
2018-03-02T02:30:20.857Z,30.57
2018-03-02T02:32:46.872Z,38.20
2018-03-02T02:35:12.974Z,34.47
2018-03-02T02:37:39.048Z,36.97
2018-03-02T02:40:05.390Z,33.40
2018-03-02T02:42:31.379Z,30.03
2018-03-02T02:44:57.382Z,38.17
2018-03-02T02:47:24.160Z,40.40
2018-03-02T02:49:50.586Z,39.33
2018-03-02T02:52:16.664Z,39.20
2018-03-02T02:54:42.654Z,32.73
2018-03-02T02:57:09.154Z,35.33
2018-03-02T02:59:35.236Z,37.43
2018-03-02T03:02:01.284Z,42.33
2018-03-02T03:04:27.291Z,37.37
2018-03-02T03:06:53.315Z,29.47
2018-03-02T03:09:19.358Z,39.87
2018-03-02T03:11:45.803Z,33.63
2018-03-02T03:14:11.859Z,38.83
2018-03-02T03:16:37.873Z,38.97
2018-03-02T03:19:03.898Z,41.63
2018-03-02T03:21:30.371Z,34.20
2018-03-02T03:23:56.391Z,32.67
2018-03-02T03:26:22.466Z,32.87
2018-03-02T03:28:48.838Z,40.70
2018-03-02T03:31:14.848Z,37.53
2018-03-02T03:33:40.842Z,26.20
2018-03-02T03:36:06.932Z,35.90
2018-03-02T03:38:33.789Z,44.53
2018-03-02T03:41:00.001Z,49.43
2018-03-02T03:43:26.018Z,33.70
2018-03-02T03:45:52.050Z,38.03
2018-03-02T03:48:18.422Z,29.27
2018-03-02T03:50:44.875Z,34.50
2018-03-02T03:53:10.958Z,34.33
2018-03-02T03:55:37.769Z,30.50
2018-03-02T03:58:03.763Z,34.13
2018-03-02T04:00:29.754Z,38.40
2018-03-02T04:02:55.836Z,44.27
2018-03-02T04:05:21.830Z,27.53
2018-03-02T04:07:47.850Z,39.20
2018-03-02T04:10:13.855Z,33.03
2018-03-02T04:12:39.855Z,40.30
2018-03-02T04:15:05.871Z,39.50
2018-03-02T04:17:31.881Z,35.87
2018-03-02T04:19:57.918Z,41.13
2018-03-02T04:22:23.931Z,39.37
2018-03-02T04:24:51.115Z,37.43
2018-03-02T04:27:17.103Z,36.97
2018-03-02T04:29:43.246Z,40.33
2018-03-02T04:32:09.676Z,42.40
2018-03-02T04:34:35.715Z,40.47
2018-03-02T04:37:01.707Z,39.97
2018-03-02T04:39:27.746Z,35.77
2018-03-02T04:41:54.563Z,43.93
2018-03-02T04:44:21.167Z,45.13
2018-03-02T04:46:47.174Z,30.60
2018-03-02T04:49:13.187Z,34.57
2018-03-02T04:51:39.183Z,37.17
2018-03-02T04:54:05.204Z,39.80
2018-03-02T04:56:31.234Z,33.90
2018-03-02T04:58:57.223Z,39.90
2018-03-02T05:01:23.970Z,53.57
2018-03-02T05:03:49.983Z,39.27
2018-03-02T05:06:16.036Z,39.33
2018-03-02T05:08:42.654Z,45.43
2018-03-02T05:11:08.696Z,38.00
2018-03-02T05:13:34.687Z,42.47
2018-03-02T05:16:01.383Z,39.33
2018-03-02T05:18:27.432Z,39.40
2018-03-02T05:20:53.474Z,41.97
2018-03-02T05:23:19.630Z,38.30
2018-03-02T05:25:45.623Z,39.03
2018-03-02T05:28:11.631Z,39.63
2018-03-02T05:30:38.294Z,39.33
2018-03-02T05:33:04.312Z,26.33
2018-03-02T05:35:30.347Z,35.30
2018-03-02T05:37:56.379Z,43.00
2018-03-02T05:40:22.383Z,44.90
2018-03-02T05:42:48.456Z,29.63
2018-03-02T05:45:14.659Z,43.90
2018-03-02T05:47:40.693Z,40.20
2018-03-02T05:50:06.723Z,44.17
2018-03-02T05:52:32.733Z,40.70
2018-03-02T05:54:58.819Z,43.10
2018-03-02T05:57:25.262Z,43.00
2018-03-02T05:59:51.298Z,45.17
2018-03-02T06:02:17.325Z,44.93
2018-03-02T06:04:43.338Z,40.07
2018-03-02T06:07:10.181Z,43.10
2018-03-02T06:09:36.211Z,39.07
2018-03-02T06:12:02.247Z,40.73
2018-03-02T06:14:28.254Z,50.77
2018-03-02T06:16:54.265Z,54.50
2018-03-02T06:19:20.279Z,40.63
2018-03-02T06:21:46.287Z,47.67
2018-03-02T06:24:12.334Z,44.93
2018-03-02T06:26:38.535Z,49.03
2018-03-02T06:29:04.954Z,41.67
2018-03-02T06:31:30.974Z,50.73
2018-03-02T06:33:56.982Z,45.63
2018-03-02T06:36:22.989Z,46.70
2018-03-02T06:38:49.386Z,46.60
2018-03-02T06:41:15.395Z,50.07
2018-03-02T06:43:41.408Z,37.70
2018-03-02T06:46:07.479Z,42.10
2018-03-02T06:48:33.956Z,34.40
2018-03-02T06:51:00.144Z,49.03
2018-03-02T06:53:26.142Z,43.47
2018-03-02T06:55:52.140Z,47.60
2018-03-02T06:58:18.196Z,45.57
2018-03-02T07:00:44.231Z,44.67
2018-03-02T07:03:10.846Z,54.13
2018-03-02T07:05:36.891Z,59.60
2018-03-02T07:08:02.874Z,39.33
2018-03-02T07:10:28.867Z,50.23
2018-03-02T07:12:56.074Z,52.43
2018-03-02T07:15:22.479Z,43.17
2018-03-02T07:17:48.470Z,48.40
2018-03-02T07:20:14.543Z,46.27
2018-03-02T07:22:40.570Z,47.73
2018-03-02T07:25:06.591Z,49.67
2018-03-02T07:27:32.647Z,51.73
2018-03-02T07:29:58.706Z,42.83
2018-03-02T07:32:25.452Z,41.83
2018-03-02T07:34:51.475Z,51.13
2018-03-02T07:37:17.494Z,50.67
2018-03-02T07:39:43.506Z,45.57
2018-03-02T07:42:09.539Z,49.27
2018-03-02T07:44:35.541Z,41.67
2018-03-02T07:47:02.047Z,40.27
2018-03-02T07:49:28.078Z,59.27
2018-03-02T07:51:54.091Z,44.20
2018-03-02T07:54:20.183Z,51.17
2018-03-02T07:56:46.191Z,57.77
2018-03-02T07:59:12.188Z,47.10
2018-03-02T08:01:38.261Z,49.03
2018-03-02T08:04:04.283Z,60.13
2018-03-02T08:06:30.387Z,55.60
2018-03-02T08:08:56.406Z,53.70
2018-03-02T08:11:22.467Z,51.43
2018-03-02T08:13:48.463Z,54.33
2018-03-02T08:16:14.545Z,42.10
2018-03-02T08:18:40.823Z,50.57
2018-03-02T08:21:06.823Z,51.40
2018-03-02T08:23:32.830Z,52.27
2018-03-02T08:25:58.866Z,46.83
2018-03-02T08:28:24.850Z,48.17
2018-03-02T08:30:50.951Z,39.60
2018-03-02T08:33:16.991Z,54.47
2018-03-02T08:35:42.987Z,50.57
2018-03-02T08:38:09.011Z,55.33
2018-03-02T08:40:35.035Z,51.60
2018-03-02T08:43:01.094Z,63.87
2018-03-02T08:45:27.595Z,51.63
2018-03-02T08:47:53.609Z,49.07
2018-03-02T08:50:19.640Z,54.63
2018-03-02T08:52:45.670Z,53.33
2018-03-02T08:55:11.731Z,58.80
2018-03-02T08:57:37.787Z,50.13
2018-03-02T09:00:03.819Z,48.90
2018-03-02T09:02:30.674Z,56.07
2018-03-02T09:04:56.740Z,57.73
2018-03-02T09:07:22.827Z,51.50
2018-03-02T09:09:48.885Z,53.67
2018-03-02T09:12:14.895Z,56.97
2018-03-02T09:14:40.896Z,46.40
2018-03-02T09:17:07.333Z,41.30
2018-03-02T09:19:33.659Z,51.90
2018-03-02T09:21:59.699Z,55.77
2018-03-02T09:24:25.774Z,63.30
2018-03-02T09:26:51.804Z,52.63
2018-03-02T09:29:17.818Z,44.30
2018-03-02T09:31:43.866Z,65.17
2018-03-02T09:34:10.270Z,59.20
2018-03-02T09:36:36.291Z,57.27
2018-03-02T09:39:02.352Z,48.03
2018-03-02T09:41:28.367Z,46.90
2018-03-02T09:43:54.426Z,49.07
2018-03-02T09:46:20.522Z,56.60
2018-03-02T09:48:46.521Z,55.53
2018-03-02T09:51:12.519Z,52.77
2018-03-02T09:53:38.642Z,52.77
2018-03-02T09:56:04.653Z,51.60
2018-03-02T09:58:30.854Z,52.03
2018-03-02T10:00:56.876Z,52.67
2018-03-02T10:03:22.897Z,57.60
2018-03-02T10:05:48.915Z,43.40
2018-03-02T10:08:14.976Z,49.97
2018-03-02T10:10:41.002Z,57.13
2018-03-02T10:13:07.539Z,49.77
2018-03-02T10:15:33.568Z,52.90
2018-03-02T10:17:59.590Z,44.87
2018-03-02T10:20:25.594Z,51.53
2018-03-02T10:22:51.638Z,56.17
2018-03-02T10:25:18.027Z,52.83
2018-03-02T10:27:44.120Z,48.10
2018-03-02T10:30:10.141Z,45.57
2018-03-02T10:32:36.250Z,56.80
2018-03-02T10:35:02.403Z,51.40
2018-03-02T10:37:28.458Z,55.47
2018-03-02T10:39:54.466Z,52.33
2018-03-02T10:42:20.474Z,49.97
2018-03-02T10:44:47.227Z,54.00
2018-03-02T10:47:13.250Z,53.27
2018-03-02T10:49:39.898Z,53.97
2018-03-02T10:52:05.908Z,60.57
2018-03-02T10:54:31.974Z,51.03
2018-03-02T10:56:57.983Z,60.63
2018-03-02T10:59:24.128Z,53.73
2018-03-02T11:01:53.475Z,58.13
2018-03-02T11:04:19.610Z,56.27
2018-03-02T11:06:45.623Z,55.10
2018-03-02T11:09:12.404Z,57.83
2018-03-02T11:11:38.508Z,47.83
2018-03-02T11:14:04.598Z,49.90
2018-03-02T11:16:30.748Z,49.70
2018-03-02T11:18:56.840Z,55.43
2018-03-02T11:21:22.847Z,51.33
2018-03-02T11:23:48.892Z,50.60
2018-03-02T11:26:14.928Z,57.07
2018-03-02T11:28:40.963Z,53.50
2018-03-02T11:31:07.411Z,53.30
2018-03-02T11:33:33.625Z,59.77
2018-03-02T11:35:59.695Z,52.20
2018-03-02T11:38:25.701Z,57.20
2018-03-02T11:40:52.191Z,51.20
2018-03-02T11:43:18.265Z,48.93
2018-03-02T11:45:44.254Z,51.10
2018-03-02T11:48:10.620Z,52.53
2018-03-02T11:50:36.730Z,53.57
2018-03-02T11:53:02.731Z,50.60
2018-03-02T11:55:29.502Z,52.63
2018-03-02T11:57:55.526Z,51.80
2018-03-02T12:00:21.592Z,51.17
2018-03-02T12:02:47.629Z,48.67
2018-03-02T12:05:14.192Z,52.90
2018-03-02T12:07:40.217Z,53.23
2018-03-02T12:10:06.220Z,53.70
2018-03-02T12:12:32.273Z,55.80
2018-03-02T12:14:58.374Z,48.90
2018-03-02T12:17:25.172Z,51.23
2018-03-02T12:19:51.178Z,53.00
2018-03-02T12:22:17.193Z,51.80
2018-03-02T12:24:43.242Z,50.87
2018-03-02T12:27:09.271Z,51.77
2018-03-02T12:29:35.279Z,54.20
2018-03-02T12:32:01.294Z,58.93
2018-03-02T12:34:27.299Z,58.63
2018-03-02T12:36:53.366Z,60.60
2018-03-02T12:39:19.584Z,58.27
2018-03-02T12:41:45.591Z,50.90
2018-03-02T12:44:11.627Z,54.47
2018-03-02T12:46:37.646Z,55.57
2018-03-02T12:49:03.678Z,58.90
2018-03-02T12:51:29.698Z,55.37
2018-03-02T12:53:56.101Z,53.07
2018-03-02T12:56:22.138Z,53.23
2018-03-02T12:58:48.143Z,55.80
2018-03-02T13:01:14.215Z,54.80
2018-03-02T13:03:40.232Z,54.93
2018-03-02T13:06:06.230Z,55.93
2018-03-02T13:08:32.234Z,54.70
2018-03-02T13:10:58.254Z,54.33
2018-03-02T13:13:24.311Z,56.27
2018-03-02T13:15:51.133Z,62.33
2018-03-02T13:18:29.357Z,52.43
2018-03-02T13:20:55.855Z,56.03
2018-03-02T13:23:21.866Z,52.23
2018-03-02T13:25:47.923Z,56.47
2018-03-02T13:28:26.203Z,47.57
2018-03-02T13:30:52.247Z,56.40
2018-03-02T13:33:43.232Z,55.87
2018-03-02T13:36:09.339Z,45.30
2018-03-02T13:38:35.317Z,56.50
2018-03-02T13:41:13.723Z,53.40
2018-03-02T13:43:39.778Z,53.57
2018-03-02T13:46:05.811Z,56.87
2018-03-02T13:48:44.011Z,53.03
2018-03-02T13:51:10.024Z,56.70
2018-03-02T13:53:36.100Z,63.77
2018-03-02T13:56:02.103Z,59.33
2018-03-02T13:58:28.114Z,57.60
2018-03-02T14:00:54.180Z,56.63
2018-03-02T14:03:32.505Z,45.80
2018-03-02T14:05:58.578Z,51.87
2018-03-02T14:08:24.578Z,53.20
2018-03-02T14:10:51.635Z,56.90
2018-03-02T14:13:18.205Z,50.83
2018-03-02T14:15:44.194Z,57.00
2018-03-02T14:18:10.719Z,52.63
2018-03-02T14:20:37.415Z,57.07
2018-03-02T14:23:03.434Z,56.53
2018-03-02T14:25:29.499Z,51.83
2018-03-02T14:27:55.520Z,56.77
2018-03-02T14:30:21.522Z,57.30
2018-03-02T14:32:47.571Z,65.73
2018-03-02T14:35:13.588Z,50.27
2018-03-02T14:37:39.698Z,47.17
2018-03-02T14:40:05.755Z,59.70
2018-03-02T14:42:31.750Z,51.23
2018-03-02T14:44:57.765Z,55.93
2018-03-02T14:47:23.796Z,60.77
2018-03-02T14:49:49.875Z,48.37
2018-03-02T14:52:15.897Z,46.00
2018-03-02T14:54:41.900Z,52.50
2018-03-02T14:57:07.922Z,52.77
2018-03-02T14:59:33.944Z,56.13
2018-03-02T15:01:59.975Z,47.10
2018-03-02T15:04:26.032Z,51.63
2018-03-02T15:06:52.039Z,55.27
2018-03-02T15:09:18.081Z,54.53
2018-03-02T15:11:44.112Z,59.20
2018-03-02T15:14:10.791Z,51.43
2018-03-02T15:16:37.154Z,59.53
2018-03-02T15:19:03.407Z,53.10
2018-03-02T15:21:29.541Z,52.00
2018-03-02T15:23:55.574Z,58.43
2018-03-02T15:26:21.595Z,46.63
2018-03-02T15:28:47.688Z,56.00
2018-03-02T15:31:13.707Z,50.77
2018-03-02T15:33:39.754Z,49.90
2018-03-02T15:36:05.779Z,47.70
2018-03-02T15:38:31.792Z,59.70
2018-03-02T15:40:57.852Z,53.33
2018-03-02T15:43:23.905Z,45.33
2018-03-02T15:45:49.939Z,54.97
2018-03-02T15:48:16.635Z,49.87
2018-03-02T15:50:42.655Z,50.67
2018-03-02T15:53:08.723Z,59.60
2018-03-02T15:55:35.186Z,56.43
2018-03-02T15:58:01.203Z,54.53
2018-03-02T16:00:27.856Z,50.83
2018-03-02T16:02:53.855Z,58.97
2018-03-02T16:05:19.881Z,52.37
2018-03-02T16:07:45.957Z,58.00
2018-03-02T16:10:11.975Z,54.73
2018-03-02T16:12:38.302Z,49.00
2018-03-02T16:15:04.320Z,58.63
2018-03-02T16:17:30.397Z,49.43
2018-03-02T16:19:56.478Z,52.80
2018-03-02T16:22:22.483Z,51.73
2018-03-02T16:24:48.521Z,50.77
2018-03-02T16:27:14.534Z,51.83
2018-03-02T16:29:40.531Z,52.50
2018-03-02T16:32:06.651Z,55.23
2018-03-02T16:34:32.700Z,46.50
2018-03-02T16:36:58.785Z,53.77
2018-03-02T16:39:24.835Z,49.97
2018-03-02T16:41:50.854Z,52.90
2018-03-02T16:44:16.934Z,50.83
2018-03-02T16:46:43.004Z,59.70
2018-03-02T16:49:09.762Z,56.00
2018-03-02T16:51:36.846Z,56.80
2018-03-02T16:54:03.245Z,50.20
2018-03-02T16:56:29.322Z,56.30
2018-03-02T16:58:55.351Z,58.03
2018-03-02T17:01:21.389Z,55.80
2018-03-02T17:03:47.407Z,49.73
2018-03-02T17:06:13.431Z,52.87
2018-03-02T17:08:39.492Z,58.43
2018-03-02T17:11:05.532Z,54.37
2018-03-02T17:13:31.570Z,53.03
2018-03-02T17:15:57.569Z,54.53
2018-03-02T17:18:23.903Z,51.13
2018-03-02T17:20:49.966Z,53.23
2018-03-02T17:23:16.008Z,55.53
2018-03-02T17:25:42.036Z,54.23
2018-03-02T17:28:08.058Z,56.33
2018-03-02T17:30:34.823Z,56.37
2018-03-02T17:33:00.931Z,52.67
2018-03-02T17:35:27.662Z,56.73
2018-03-02T17:37:53.720Z,54.40
2018-03-02T17:40:19.768Z,53.97
2018-03-02T17:42:45.791Z,49.97
2018-03-02T17:45:11.961Z,67.30
2018-03-02T17:47:37.962Z,51.93
2018-03-02T17:50:04.091Z,51.17
2018-03-02T17:52:30.245Z,57.77
2018-03-02T17:54:56.265Z,70.20
2018-03-02T17:57:22.315Z,52.37
2018-03-02T17:59:48.315Z,52.33
2018-03-02T18:02:14.359Z,52.17
2018-03-02T18:04:40.396Z,56.83
2018-03-02T18:07:06.407Z,46.13
2018-03-02T18:09:32.467Z,49.67
2018-03-02T18:11:58.859Z,53.47
2018-03-02T18:14:24.897Z,51.57
2018-03-02T18:16:50.940Z,54.20
2018-03-02T18:19:16.960Z,52.73
2018-03-02T18:21:42.971Z,52.67
2018-03-02T18:24:09.023Z,54.37
2018-03-02T18:26:35.787Z,53.67
2018-03-02T18:29:01.832Z,67.93
2018-03-02T18:31:28.272Z,59.83
2018-03-02T18:33:54.299Z,55.53
2018-03-02T18:36:20.355Z,56.70
2018-03-02T18:38:46.500Z,59.83
2018-03-02T18:41:12.517Z,65.57
2018-03-02T18:43:38.554Z,58.83
2018-03-02T18:46:04.830Z,65.67
2018-03-02T18:48:30.899Z,69.60
2018-03-02T18:50:56.915Z,69.23
2018-03-02T18:53:22.959Z,66.90
2018-03-02T18:55:48.975Z,72.80
2018-03-02T18:58:14.982Z,76.23
2018-03-02T19:00:40.999Z,75.30
2018-03-02T19:03:07.047Z,79.97
2018-03-02T19:05:33.316Z,77.63
2018-03-02T19:07:59.334Z,79.03
2018-03-02T19:10:25.339Z,77.07
2018-03-02T19:12:51.387Z,83.20
2018-03-02T19:15:17.457Z,75.87
2018-03-02T19:17:43.456Z,83.60
2018-03-02T19:20:09.970Z,81.13
2018-03-02T19:22:35.970Z,73.80
2018-03-02T19:25:02.045Z,90.27
2018-03-02T19:27:28.074Z,102.50
2018-03-02T19:29:54.083Z,98.00
2018-03-02T19:32:20.115Z,102.50
2018-03-02T19:34:46.115Z,93.73
2018-03-02T19:37:12.450Z,98.20
2018-03-02T19:39:38.631Z,85.40
2018-03-02T19:42:04.643Z,100.50
2018-03-02T19:44:30.732Z,90.80
2018-03-02T19:46:57.157Z,86.33
2018-03-02T19:49:23.182Z,86.27
2018-03-02T19:51:49.264Z,86.13
2018-03-02T19:54:15.248Z,88.57
2018-03-02T19:56:41.270Z,99.47
2018-03-02T19:59:07.274Z,94.63
2018-03-02T20:01:33.333Z,94.07
2018-03-02T20:03:59.370Z,90.83
2018-03-02T20:06:25.375Z,89.47
2018-03-02T20:08:51.423Z,92.77
2018-03-02T20:11:17.604Z,98.23
2018-03-02T20:13:43.632Z,103.63
2018-03-02T20:16:09.660Z,99.10
2018-03-02T20:18:35.711Z,108.13
2018-03-02T20:21:01.755Z,88.23
2018-03-02T20:23:27.754Z,100.47
2018-03-02T20:25:53.794Z,99.93
2018-03-02T20:28:19.819Z,103.90
2018-03-02T20:30:45.835Z,95.20
2018-03-02T20:33:11.827Z,99.47
2018-03-02T20:35:37.834Z,108.30
2018-03-02T20:38:03.938Z,105.40
2018-03-02T20:40:29.976Z,102.23
2018-03-02T20:42:55.990Z,89.90
2018-03-02T20:45:22.007Z,100.33
2018-03-02T20:47:48.010Z,108.90
2018-03-02T20:50:14.139Z,111.97
2018-03-02T20:52:40.342Z,142.10
2018-03-02T20:55:06.301Z,138.90
2018-03-02T20:57:32.331Z,113.07
2018-03-02T20:59:58.737Z,96.93
2018-03-02T21:02:24.889Z,112.47
2018-03-02T21:04:51.319Z,110.43
2018-03-02T21:07:17.600Z,107.90
2018-03-02T21:09:43.611Z,117.17
2018-03-02T21:12:29.506Z,110.80
2018-03-02T21:14:55.579Z,114.17
2018-03-02T21:17:29.044Z,108.70
2018-03-02T21:19:55.063Z,108.50
2018-03-02T21:23:52.021Z,109.10
2018-03-02T21:26:25.803Z,112.23
2018-03-02T21:28:51.831Z,120.93
2018-03-02T21:31:17.826Z,127.10
2018-03-02T21:36:05.504Z,119.77
2018-03-02T21:38:31.568Z,112.13
2018-03-02T21:40:57.575Z,114.67
2018-03-02T21:43:23.574Z,121.67
2018-03-02T21:45:49.574Z,116.30
2018-03-02T21:48:15.647Z,113.07
2018-03-02T21:50:41.714Z,113.50
2018-03-02T21:53:07.802Z,117.40
2018-03-02T21:55:33.797Z,121.53
2018-03-02T21:57:59.809Z,147.00
2018-03-02T22:00:25.853Z,122.97
2018-03-02T22:02:51.907Z,123.40
2018-03-02T22:05:17.983Z,123.83
2018-03-02T22:07:44.447Z,149.40
2018-03-02T22:10:11.259Z,136.27
2018-03-02T22:12:37.300Z,118.33
2018-03-02T22:15:03.350Z,154.60
2018-03-02T22:17:29.349Z,122.70
2018-03-02T22:19:55.353Z,144.73
2018-03-02T22:22:21.858Z,173.67
2018-03-02T22:24:47.891Z,129.03
2018-03-02T22:27:13.895Z,118.17
2018-03-02T22:29:39.954Z,126.77
2018-03-02T22:32:05.991Z,129.90
2018-03-02T22:34:31.987Z,128.43
2018-03-02T22:36:58.111Z,128.33
2018-03-02T22:39:24.174Z,135.60
2018-03-02T22:41:50.781Z,129.30
2018-03-02T22:44:16.811Z,135.33
2018-03-02T22:46:42.837Z,126.70
2018-03-02T22:49:08.874Z,123.60
2018-03-02T22:51:34.891Z,137.63
2018-03-02T22:54:01.009Z,125.70
2018-03-02T22:56:27.031Z,132.33
2018-03-02T22:58:53.045Z,142.87
2018-03-02T23:01:19.093Z,127.30
2018-03-02T23:03:45.107Z,133.20
2018-03-02T23:06:11.174Z,141.40
2018-03-02T23:08:37.955Z,148.07
2018-03-02T23:11:03.962Z,136.67
2018-03-02T23:13:29.991Z,137.00
2018-03-02T23:15:56.079Z,142.00
2018-03-02T23:18:22.118Z,144.77
2018-03-02T23:20:48.143Z,135.07
2018-03-02T23:23:14.914Z,138.97
2018-03-02T23:25:40.952Z,158.60
2018-03-02T23:28:06.990Z,135.30
2018-03-02T23:30:33.845Z,132.40
2018-03-02T23:32:59.882Z,129.47
2018-03-02T23:35:25.909Z,147.00
2018-03-02T23:37:51.906Z,146.77
2018-03-02T23:40:17.911Z,136.90
2018-03-02T23:42:43.980Z,129.80
2018-03-02T23:45:09.994Z,145.93
2018-03-02T23:47:36.055Z,148.23
2018-03-02T23:50:02.085Z,146.93
2018-03-02T23:52:28.089Z,139.13
2018-03-02T23:54:54.162Z,127.43
2018-03-02T23:57:20.168Z,135.57
2018-03-02T23:59:46.216Z,145.07
